Capt. John Reynolds — WDD6151 — position and weather

sailwx.info

Track history (hours):
 
Tides and Currents Weather Stations Pressure Air Temp Water Temp Dewpoint Dewpoint Depression Visibility Wind Speed Wind Dir Waves Ship Positions

Capt. John Reynolds

Owner: AEP River Operations LLC, Chesterfield, MO. More information available from US FCC via Universal Licensing System and Coast Guard Vessel Documentation Center.

Last reported at 2015-Jan-27 09:33 UTC. Time now 2015-Jan-27 10:29 UTC.
Position N 30°01' W 090°44'.

Length 47 m; draft 3.3 m.

Type: Towing. MMSI: 367168950.

Date/timePositionNaut miles runAvg speedWind from/ knotsBaromVisibWave heightAir tempDewpointWater temp
2015-Jan-27 09:33N 30°01' W 090°44'4 4.3
2015-Jan-27 08:33N 30°03' W 090°40'4 3.8
2015-Jan-27 07:30N 30°03' W 090°35'24 3.3
2015-Jan-27 00:10N 29°57' W 090°08'2 3.8
2015-Jan-26 23:32N 29°55' W 090°07'4 3.9
2015-Jan-26 22:33N 29°57' W 090°04'4 1.3
2015-Jan-26 19:33N 29°56' W 089°59'0 0.0
2015-Jan-26 18:21N 29°56' W 089°59'0 0.0
2015-Jan-26 17:21N 29°56' W 089°59'0 0.0
2015-Jan-25 02:31N 29°56' W 089°60'3 3.4
2015-Jan-25 01:31N 29°57' W 090°03'4 4.6
2015-Jan-25 00:33N 29°55' W 090°08'  
2015-Jan-22 15:20N 29°57' W 090°01'0 0.0
2015-Jan-22 14:14N 29°57' W 090°01'0 0.0
2015-Jan-22 12:32N 29°57' W 090°01'0 0.0
2015-Jan-22 11:14N 29°57' W 090°01'2 0.1
2015-Jan-21 14:04N 29°56' W 089°59'2 2.4
2015-Jan-21 13:24N 29°57' W 090°01'0 0.0
2015-Jan-21 12:19N 29°57' W 090°01'0 0.0
2015-Jan-21 11:34N 29°57' W 090°01'0 0.0
2015-Jan-21 10:09N 29°57' W 090°01'6 0.8
2015-Jan-21 03:24N 29°55' W 090°07'37 1.0
2015-Jan-19 15:30N 29°60' W 090°50'0 0.0
2015-Jan-19 14:18N 29°60' W 090°50'0 0.1
2015-Jan-19 13:33N 29°60' W 090°50'0 0.0
2015-Jan-19 12:12N 29°60' W 090°50'0 0.0
2015-Jan-19 11:06N 29°60' W 090°50'0 0.0
2015-Jan-18 14:16N 29°59' W 090°49'0 0.0
2015-Jan-18 13:28N 29°59' W 090°49'0 0.0
2015-Jan-18 11:28N 29°59' W 090°49'  
Track history (hours):
 
Tides and Currents Weather Stations Pressure Air Temp Water Temp Dewpoint Dewpoint Depression Visibility Wind Speed Wind Dir Waves Ship Positions

Capt. John Reynolds

Owner: AEP River Operations LLC, Chesterfield, MO. More information available from US FCC via Universal Licensing System and Coast Guard Vessel Documentation Center.

Last reported at 2015-Jan-27 09:33 UTC. Time now 2015-Jan-27 10:29 UTC.
Position N 30°01' W 090°44'.

Length 47 m; draft 3.3 m.

Type: Towing. MMSI: 367168950.

Date/timePositionNaut miles runAvg speedWind from/ knotsBaromVisibWave heightAir tempDewpointWater temp
2015-Jan-27 09:33N 30°01' W 090°44'4 4.3
2015-Jan-27 08:33N 30°03' W 090°40'4 3.8
2015-Jan-27 07:30N 30°03' W 090°35'24 3.3
2015-Jan-27 00:10N 29°57' W 090°08'2 3.8
2015-Jan-26 23:32N 29°55' W 090°07'4 3.9
2015-Jan-26 22:33N 29°57' W 090°04'4 1.3
2015-Jan-26 19:33N 29°56' W 089°59'0 0.0
2015-Jan-26 18:21N 29°56' W 089°59'0 0.0
2015-Jan-26 17:21N 29°56' W 089°59'0 0.0
2015-Jan-25 02:31N 29°56' W 089°60'3 3.4
2015-Jan-25 01:31N 29°57' W 090°03'4 4.6
2015-Jan-25 00:33N 29°55' W 090°08'  
2015-Jan-22 15:20N 29°57' W 090°01'0 0.0
2015-Jan-22 14:14N 29°57' W 090°01'0 0.0
2015-Jan-22 12:32N 29°57' W 090°01'0 0.0
2015-Jan-22 11:14N 29°57' W 090°01'2 0.1
2015-Jan-21 14:04N 29°56' W 089°59'2 2.4
2015-Jan-21 13:24N 29°57' W 090°01'0 0.0
2015-Jan-21 12:19N 29°57' W 090°01'0 0.0
2015-Jan-21 11:34N 29°57' W 090°01'0 0.0
2015-Jan-21 10:09N 29°57' W 090°01'6 0.8
2015-Jan-21 03:24N 29°55' W 090°07'37 1.0
2015-Jan-19 15:30N 29°60' W 090°50'0 0.0
2015-Jan-19 14:18N 29°60' W 090°50'0 0.1
2015-Jan-19 13:33N 29°60' W 090°50'0 0.0
2015-Jan-19 12:12N 29°60' W 090°50'0 0.0
2015-Jan-19 11:06N 29°60' W 090°50'0 0.0
2015-Jan-18 14:16N 29°59' W 090°49'0 0.0
2015-Jan-18 13:28N 29°59' W 090°49'0 0.0
2015-Jan-18 11:28N 29°59' W 090°49'  

Dump ship's entire track history